METAR AND TAF INFORMATION
METAR FOR LTBH
ADDS - METARS form results

(1715 UTC 20 June 2019)
Data provider http://aviationweather.gov/metar/data/
 
METAR text: LTBH 201650Z 32007KT 280V020 CAVOK 28/19 Q1010
Conditions at: LTBH (CANAKKALE , TR) observed 1650 UTC 20 June 2019
Temperature: 28.0°C (82°F)
Dewpoint: 19.0°C (66°F) [RH = 58%]
Pressure (altimeter): 29.82 inches Hg (1010.0 mb)
Winds: from the NW (320 degrees) at 8 MPH (7 knots; 3.6 m/s)
Visibility: 6 or more miles (10+ km)
Ceiling: ceiling and visibility are OK
Clouds: unknown
Weather: no significant weather observed at this time

Forecast for: LTBH (CANAKKALE , TR)
Text: TAF LTBH 201640Z 2018/2103 03005KT CAVOK
Forecast period: 1800 UTC 20 June 2019 to 0300 UTC 21 June 2019
Forecast type: FROM: standard forecast or significant change
Winds: from the NNE (30 degrees) at 6 MPH (5 knots; 2.6 m/s)
Visibility: 6 or more miles 10+ km)
Ceiling: unknown
Clouds: missing
Weather: NSW  (no significant weather)

 AIRPORT MAP

 RUNWAY INFORMATION
Runway 04 Runway length 5905 ft Runway width 98 ft
Runway elevation 12 ft Runway displaced threshold 0 ft Runway heading 41
Runway 22 Runway length 5905 ft Runway width 98 ft
Runway elevation 21 ft Runway displaced threshold 0 ft Runway heading 221

 AIRPORT FREQUENCIES
Type APP Name YESILKOY A Frequency 122.1 MHZ
Type TWR Name TWR Frequency 123.6 MHZ

 AIRPORT NEAR NAVIGATION AIDS
Type VOR-DME Name Canakkale Frequency 111200 KHZ
Type NDB Name Canakkale Frequency 422 KHZ



>